Time;durP1;ratioP1;P1;durP2;ratioP2;P2;SDS_P1;SDS_P2;PMS_P1;PMS_P2;Temp;Humidity;BMP_temperature;BMP_pressure;BME280_temperature;BME280_humidity;BME280_pressure;Samples;Min_cycle;Max_cycle;Signal;HPM_P1;HPM_P2
2023/07/21 00:01:08;;;;;;;1.50;1.40;;;17.70;80.20;;;;;;5096599;28;20043;-73
2023/07/21 00:03:35;;;;;;;1.73;1.25;;;17.70;80.90;;;;;;5112861;28;20054;-73
2023/07/21 00:06:09;;;;;;;1.65;1.50;;;18.80;81.70;;;;;;5133858;27;20023;-73
2023/07/21 00:08:35;;;;;;;1.75;1.45;;;17.60;80.70;;;;;;5135079;27;20083;-74
2023/07/21 00:11:02;;;;;;;3.33;1.48;;;17.60;80.50;;;;;;5125139;27;20051;-73
2023/07/21 00:13:27;;;;;;;1.60;1.30;;;17.60;80.50;;;;;;5113852;28;20440;-73
2023/07/21 00:15:54;;;;;;;1.67;1.20;;;17.60;80.20;;;;;;5113837;28;20058;-73
2023/07/21 00:18:20;;;;;;;2.97;1.55;;;17.60;80.10;;;;;;5113327;28;20015;-73
2023/07/21 00:20:47;;;;;;;2.53;1.58;;;17.60;80.40;;;;;;5108980;28;20059;-73
2023/07/21 00:23:13;;;;;;;1.75;1.30;;;17.60;80.40;;;;;;5133624;27;20039;-74
2023/07/21 00:25:41;;;;;;;1.42;1.23;;;17.60;80.50;;;;;;5133973;27;20015;-72
2023/07/21 00:28:07;;;;;;;2.40;1.10;;;17.60;80.40;;;;;;5133664;27;20026;-73
2023/07/21 00:30:33;;;;;;;2.03;1.55;;;17.60;80.80;;;;;;5099053;27;20032;-72
2023/07/21 00:33:00;;;;;;;3.25;1.52;;;17.60;81.30;;;;;;5092694;28;20027;-72
2023/07/21 00:35:26;;;;;;;1.63;1.48;;;17.50;81.50;;;;;;5093064;28;20020;-73
2023/07/21 00:37:51;;;;;;;2.13;1.20;;;17.50;81.40;;;;;;5093497;28;20027;-72
2023/07/21 00:40:20;;;;;;;1.88;1.40;;;17.50;81.40;;;;;;5097446;27;20023;-72
2023/07/21 00:42:46;;;;;;;1.85;1.40;;;17.50;81.40;;;;;;5113107;28;20047;-72
2023/07/21 00:45:15;;;;;;;1.80;1.20;;;17.50;81.40;;;;;;5112426;28;20016;-72
2023/07/21 00:47:42;;;;;;;1.90;1.35;;;17.60;81.00;;;;;;5113925;28;20028;-72
2023/07/21 00:50:12;;;;;;;2.30;1.48;;;17.50;80.90;;;;;;5099131;28;20024;-72
2023/07/21 00:52:38;;;;;;;3.00;1.00;;;17.60;81.00;;;;;;5093120;28;20039;-72
2023/07/21 00:55:04;;;;;;;2.33;1.55;;;17.60;81.30;;;;;;5107254;27;20031;-72
2023/07/21 00:57:32;;;;;;;1.38;1.27;;;17.60;81.60;;;;;;5133889;27;20108;-72
2023/07/21 00:59:58;;;;;;;2.17;1.52;;;17.60;81.40;;;;;;5119535;27;20028;-72
2023/07/21 01:02:24;;;;;;;2.65;1.77;;;17.60;81.40;;;;;;5112900;28;20030;-72
2023/07/21 01:04:49;;;;;;;2.42;1.27;;;17.60;81.30;;;;;;5112585;28;20032;-72
2023/07/21 01:07:18;;;;;;;2.47;1.38;;;17.60;81.60;;;;;;5112350;28;20337;-72
2023/07/21 01:09:45;;;;;;;2.08;1.30;;;17.60;81.90;;;;;;5111713;28;20420;-73
2023/07/21 01:12:11;;;;;;;2.80;1.60;;;17.60;82.50;;;;;;5109188;27;20031;-72
2023/07/21 01:14:37;;;;;;;1.40;1.13;;;17.60;82.70;;;;;;5096467;28;20047;-72
2023/07/21 01:17:06;;;;;;;2.17;1.17;;;17.50;83.10;;;;;;5092136;28;20027;-72
2023/07/21 01:19:34;;;;;;;1.35;1.25;;;17.50;83.40;;;;;;5092144;28;20074;-72
2023/07/21 01:22:31;;;;;;;1.65;1.50;;;17.50;83.50;;;;;;5091915;28;20060;-72
2023/07/21 01:25:11;;;;;;;1.95;1.60;;;17.50;83.70;;;;;;5091931;28;20031;-72
2023/07/21 01:27:41;;;;;;;2.40;1.48;;;17.40;83.90;;;;;;5105059;27;20035;-73
2023/07/21 01:30:11;;;;;;;;;;;17.50;84.20;;;;;;5132690;27;20110;-71
2023/07/21 01:32:38;;;;;;;2.83;1.48;;;;;;;;;;5103332;27;19907;-72
2023/07/21 01:35:09;;;;;;;1.58;1.20;;;17.50;83.30;;;;;;5091144;28;20028;-72
2023/07/21 01:37:37;;;;;;;2.15;1.58;;;17.50;83.90;;;;;;5092546;28;20145;-72
2023/07/21 01:40:06;;;;;;;2.58;1.63;;;17.50;84.90;;;;;;5093926;28;20048;-72
2023/07/21 01:42:33;;;;;;;1.60;1.40;;;17.50;85.40;;;;;;5096541;28;20020;-73
2023/07/21 01:45:02;;;;;;;1.98;1.50;;;17.40;84.90;;;;;;5102632;28;20039;-73
2023/07/21 01:47:35;;;;;;;2.00;1.53;;;17.30;84.80;;;;;;5112608;28;20019;-73
2023/07/21 01:50:01;;;;;;;2.35;1.42;;;17.30;85.00;;;;;;5111587;28;20043;-73
2023/07/21 01:52:30;;;;;;;1.88;1.45;;;17.20;85.30;;;;;;5086560;28;20031;-73
2023/07/21 01:55:16;;;;;;;2.72;1.60;;;17.10;85.40;;;;;;5071616;28;20025;-73
2023/07/21 01:57:46;;;;;;;2.72;1.77;;;17.20;85.80;;;;;;5071774;28;20028;-73
2023/07/21 02:00:13;;;;;;;1.65;1.40;;;17.10;85.90;;;;;;5074959;28;20032;-73
2023/07/21 02:02:44;;;;;;;1.92;1.55;;;17.10;86.00;;;;;;5095704;28;20103;-72
2023/07/21 02:05:25;;;;;;;2.95;1.65;;;17.10;86.40;;;;;;5090957;28;20459;-72
2023/07/21 02:07:51;;;;;;;4.90;1.70;;;17.10;86.70;;;;;;5092324;28;20024;-72
2023/07/21 02:10:17;;;;;;;2.28;1.75;;;17.10;86.90;;;;;;5090790;28;20905;-72
2023/07/21 02:12:43;;;;;;;3.08;1.52;;;17.10;86.90;;;;;;5090658;28;20442;-72
2023/07/21 02:15:09;;;;;;;2.33;1.45;;;17.10;86.60;;;;;;5090441;28;20023;-72
2023/07/21 02:17:35;;;;;;;3.22;2.05;;;17.20;86.70;;;;;;5098494;28;20032;-72
2023/07/21 02:20:07;;;;;;;2.10;1.63;;;17.20;87.20;;;;;;5099423;28;20024;-72
2023/07/21 02:22:33;;;;;;;1.60;1.40;;;17.20;87.20;;;;;;5071638;28;20107;-72
2023/07/21 02:24:59;;;;;;;1.80;1.40;;;17.20;87.30;;;;;;5070398;28;20032;-71
2023/07/21 02:27:25;;;;;;;1.60;1.50;;;17.10;87.50;;;;;;5071517;28;20078;-73
2023/07/21 02:29:51;;;;;;;1.63;1.50;;;17.10;87.50;;;;;;5071192;28;20034;-72
2023/07/21 02:32:16;;;;;;;3.58;1.40;;;17.10;86.90;;;;;;5075899;28;20662;-73
2023/07/21 02:34:42;;;;;;;1.42;1.33;;;17.10;86.60;;;;;;5093233;28;20058;-72
2023/07/21 02:37:08;;;;;;;1.73;1.40;;;17.10;87.10;;;;;;5111251;28;20020;-72
2023/07/21 02:39:33;;;;;;;1.80;1.33;;;17.10;87.10;;;;;;5108679;28;20016;-72
2023/07/21 02:41:59;;;;;;;1.75;1.40;;;17.10;87.30;;;;;;5089488;28;20036;-72
2023/07/21 02:44:25;;;;;;;1.52;1.15;;;17.10;87.40;;;;;;5107642;28;20050;-73
2023/07/21 02:46:51;;;;;;;1.23;1.13;;;17.10;87.60;;;;;;5111837;28;20060;-72
2023/07/21 02:49:18;;;;;;;1.48;1.38;;;17.10;87.80;;;;;;5119144;28;20035;-72
2023/07/21 02:51:43;;;;;;;1.50;1.40;;;17.10;88.10;;;;;;5093164;28;20495;-72
2023/07/21 02:54:09;;;;;;;1.88;1.65;;;17.10;87.80;;;;;;5090447;28;20028;-73
2023/07/21 02:56:34;;;;;;;2.22;1.30;;;17.10;87.40;;;;;;5076864;28;20407;-72
2023/07/21 02:59:02;;;;;;;1.40;1.25;;;17.10;87.60;;;;;;5094737;28;20034;-72
2023/07/21 03:01:28;;;;;;;3.80;1.40;;;17.10;88.00;;;;;;5111057;28;20027;-72
2023/07/21 03:03:54;;;;;;;1.65;1.27;;;17.10;88.40;;;;;;5115614;28;20032;-72
2023/07/21 03:06:20;;;;;;;4.70;1.73;;;17.10;89.00;;;;;;5123891;27;20647;-72
2023/07/21 03:08:46;;;;;;;2.28;1.60;;;17.10;88.30;;;;;;5136254;27;20015;-71
2023/07/21 03:11:13;;;;;;;2.08;1.65;;;17.10;88.80;;;;;;5105759;27;20098;-71
2023/07/21 03:13:41;;;;;;;1.38;1.20;;;17.10;88.90;;;;;;5094661;28;20082;-72
2023/07/21 03:16:07;;;;;;;1.77;1.10;;;17.10;88.90;;;;;;5093509;28;20027;-71
2023/07/21 03:18:32;;;;;;;1.48;1.30;;;17.00;89.20;;;;;;5094915;28;20027;-72
2023/07/21 03:20:59;;;;;;;3.40;1.50;;;16.90;89.50;;;;;;5093956;28;20020;-72
2023/07/21 03:23:25;;;;;;;2.90;1.85;;;16.80;90.00;;;;;;5099858;27;20075;-72
2023/07/21 03:25:53;;;;;;;2.75;1.83;;;;;;;;;;5135023;27;20019;-72
2023/07/21 03:28:21;;;;;;;2.58;1.65;;;;;;;;;;5134722;27;20091;-72
2023/07/21 03:30:56;;;;;;;1.77;1.60;;;;;;;;;;5120689;27;20026;-73
2023/07/21 03:33:22;;;;;;;3.78;1.60;;;;;;;;;;5114229;28;20115;-72
2023/07/21 03:35:48;;;;;;;1.98;1.20;;;;;;;;;;5114391;28;20055;-72
2023/07/21 03:38:14;;;;;;;1.33;1.23;;;;;;;;;;5113958;28;20019;-73
2023/07/21 03:40:40;;;;;;;2.65;1.60;;;;;;;;;;5113306;27;20024;-73
2023/07/21 03:43:06;;;;;;;2.33;1.60;;;;;;;;;;5127661;27;20139;-72
2023/07/21 03:45:32;;;;;;;1.70;1.38;;;;;;;;;;5114137;28;20012;-72
2023/07/21 03:47:58;;;;;;;2.03;1.42;;;;;;;;;;5114391;28;20030;-72
2023/07/21 03:50:24;;;;;;;2.85;1.60;;;;;;;;;;5101022;28;20020;-72
2023/07/21 03:52:50;;;;;;;3.53;1.60;;;;;;;;;;5074017;28;20028;-72
2023/07/21 03:55:17;;;;;;;2.58;1.60;;;;;;;;;;5072114;28;20016;-72
2023/07/21 03:57:43;;;;;;;1.75;1.30;;;;;;;;;;5093089;28;20020;-73
2023/07/21 04:00:10;;;;;;;1.67;1.50;;;;;;;;;;5101400;28;20047;-72
2023/07/21 04:02:36;;;;;;;5.00;1.73;;;;;;;;;;5074173;28;20350;-73
2023/07/21 04:05:02;;;;;;;1.98;1.75;;;;;;;;;;5072487;28;20021;-72
2023/07/21 04:07:28;;;;;;;1.65;1.25;;;;;;;;;;5073152;28;20020;-72
2023/07/21 04:09:54;;;;;;;2.97;1.55;;;;;;;;;;5073818;28;20020;-72
2023/07/21 04:12:20;;;;;;;1.98;1.40;;;;;;;;;;5075405;28;20016;-72
2023/07/21 04:14:46;;;;;;;1.83;1.67;;;;;;;;;;5072958;28;20368;-72
2023/07/21 04:17:12;;;;;;;1.98;1.50;;;;;;;;;;5100885;28;20015;-72
2023/07/21 04:19:38;;;;;;;1.77;1.63;;;;;;;;;;5113446;28;20102;-72
2023/07/21 04:22:04;;;;;;;1.85;1.52;;;;;;;;;;5073882;28;20400;-72
2023/07/21 04:24:30;;;;;;;1.80;1.48;;;;;;;;;;5073159;28;20032;-72
2023/07/21 04:26:56;;;;;;;2.10;1.50;;;;;;;;;;5076416;28;20031;-73
2023/07/21 04:29:22;;;;;;;1.98;1.40;;;;;;;;;;5091864;28;20056;-73
2023/07/21 04:31:48;;;;;;;3.85;1.90;;;;;;;;;;5093914;28;20020;-73
2023/07/21 04:34:14;;;;;;;2.80;1.92;;;;;;;;;;5096364;28;20080;-73
2023/07/21 04:36:40;;;;;;;2.33;1.75;;;;;;;;;;5093002;28;20024;-73
2023/07/21 04:39:06;;;;;;;2.20;1.65;;;;;;;;;;5083423;28;20035;-72
2023/07/21 04:41:32;;;;;;;1.83;1.60;;;;;;;;;;5088039;28;20028;-72
2023/07/21 04:43:59;;;;;;;4.28;1.83;;;;;;;;;;5105872;28;20039;-73
2023/07/21 04:46:25;;;;;;;2.20;1.65;;;;;;;;;;5094676;28;20453;-72
2023/07/21 04:48:51;;;;;;;3.25;2.08;;;;;;;;;;5107761;28;20077;-72
2023/07/21 04:51:17;;;;;;;3.33;1.98;;;;;;;;;;5117281;27;20852;-72
2023/07/21 04:53:43;;;;;;;4.43;2.00;;;;;;;;;;5134039;27;20029;-72
2023/07/21 04:56:09;;;;;;;2.83;1.77;;;;;;;;;;5132735;27;20023;-72
2023/07/21 04:58:35;;;;;;;5.20;2.33;;;;;;;;;;5127493;27;20063;-72
2023/07/21 05:01:01;;;;;;;2.38;1.70;;;;;;;;;;5098645;28;20456;-72
2023/07/21 05:03:26;;;;;;;3.42;2.05;;;;;;;;;;5113344;28;20031;-74
2023/07/21 05:05:52;;;;;;;4.25;1.90;;;;;;;;;;5112838;28;20023;-72
2023/07/21 05:08:20;;;;;;;4.53;2.47;;;;;;;;;;5127263;27;20025;-72
2023/07/21 05:10:46;;;;;;;3.38;2.90;;;;;;;;;;5112215;28;20020;-73
2023/07/21 05:13:12;;;;;;;4.75;2.38;;;;;;;;;;5112549;28;20028;-72
2023/07/21 05:15:38;;;;;;;4.47;2.20;;;;;;;;;;5112685;28;20019;-72
2023/07/21 05:18:05;;;;;;;4.32;2.22;;;;;;;;;;5111638;28;20031;-71
2023/07/21 05:20:31;;;;;;;4.07;2.25;;;;;;;;;;5108662;28;20356;-72
2023/07/21 05:22:57;;;;;;;2.50;1.98;;;;;;;;;;5106697;27;20035;-72
2023/07/21 05:25:23;;;;;;;3.47;2.00;;;;;;;;;;5116579;27;20345;-72
2023/07/21 05:27:49;;;;;;;4.75;2.03;;;;;;;;;;5111295;28;20024;-72
2023/07/21 05:30:16;;;;;;;3.05;2.35;;;;;;;;;;5108671;28;20022;-72
2023/07/21 05:32:42;;;;;;;2.85;1.77;;;;;;;;;;5111289;28;20019;-71
2023/07/21 05:35:10;;;;;;;5.60;2.20;;;;;;;;;;5108425;28;20425;-70
2023/07/21 05:37:35;;;;;;;4.88;2.30;;;;;;;;;;5111490;28;20114;-72
2023/07/21 05:40:02;;;;;;;5.97;2.80;;;;;;;;;;5109835;28;20488;-70
2023/07/21 05:42:28;;;;;;;6.93;2.45;;;;;;;;;;5110947;28;20046;-70
2023/07/21 05:44:54;;;;;;;4.88;2.30;;;;;;;;;;5110640;28;20028;-75
2023/07/21 05:47:20;;;;;;;6.25;2.47;;;;;;;;;;5099827;28;20032;-71
2023/07/21 05:49:46;;;;;;;5.25;2.35;;;;;;;;;;5107423;28;20025;-70
2023/07/21 05:52:12;;;;;;;5.03;2.33;;;;;;;;;;5109576;28;20023;-71
2023/07/21 05:54:39;;;;;;;4.78;2.42;;;;;;;;;;5108426;28;20032;-69
2023/07/21 05:57:06;;;;;;;5.55;2.30;;;;;;;;;;5110287;28;20024;-69
2023/07/21 05:59:32;;;;;;;5.03;2.67;;;;;;;;;;5114970;28;20008;-69
2023/07/21 06:02:01;;;;;;;3.42;2.50;;;;;;;;;;5109655;28;20104;-69
2023/07/21 06:04:27;;;;;;;4.10;2.20;;;;;;;;;;5110351;28;20027;-70
2023/07/21 06:06:56;;;;;;;4.03;2.40;;;;;;;;;;5106486;28;20055;-70
2023/07/21 06:09:22;;;;;;;5.10;2.47;;;;;;;;;;5110460;28;20020;-69
2023/07/21 06:11:48;;;;;;;8.13;2.92;;;;;;;;;;5111792;28;20047;-69
2023/07/21 06:14:14;;;;;;;8.07;2.63;;;;;;;;;;5110290;28;20023;-69
2023/07/21 06:16:40;;;;;;;11.23;2.50;;;;;;;;;;5110414;28;20119;-69
2023/07/21 06:19:06;;;;;;;6.63;3.03;;;;;;;;;;5110025;28;20031;-69
2023/07/21 06:21:32;;;;;;;5.68;2.40;;;;;;;;;;5105190;28;20131;-69
2023/07/21 06:23:58;;;;;;;6.80;2.67;;;;;;;;;;5110066;28;20156;-69
2023/07/21 06:26:24;;;;;;;5.45;2.40;;;;;;;;;;5109566;28;20495;-69
2023/07/21 06:28:50;;;;;;;7.28;2.65;;;;;;;;;;5111821;28;20019;-69
2023/07/21 06:31:17;;;;;;;3.20;2.58;;;;;;;;;;5113775;28;20444;-68
2023/07/21 06:33:43;;;;;;;3.90;2.47;;;;;;;;;;5114687;28;20028;-69
2023/07/21 06:36:09;;;;;;;10.52;2.97;;;;;;;;;;5114061;28;20012;-69
2023/07/21 06:38:35;;;;;;;5.95;2.30;;;;;;;;;;5103682;28;20018;-68
2023/07/21 06:41:04;;;;;;;9.25;2.60;;;;;;;;;;5114298;28;20023;-69
2023/07/21 06:43:30;;;;;;;6.70;2.57;;;;;;;;;;5116655;27;20050;-68
2023/07/21 06:45:56;;;;;;;3.88;2.22;;;;;;;;;;5114603;28;20024;-69
2023/07/21 06:48:25;;;;;;;6.40;2.97;;;;;;;;;;5114430;28;20015;-68
2023/07/21 06:50:54;;;;;;;5.32;2.88;;;;;;;;;;5114851;28;20020;-69
2023/07/21 06:53:22;;;;;;;7.05;3.10;;;;;;;;;;5111036;28;20019;-69
2023/07/21 06:55:52;;;;;;;7.45;3.20;;;;;;;;;;5111788;28;20016;-69
2023/07/21 06:58:19;;;;;;;6.60;3.30;;;;;;;;;;5114177;28;20096;-68
2023/07/21 07:00:46;;;;;;;7.57;3.15;;;;;;;;;;5114657;28;20024;-68
2023/07/21 07:03:12;;;;;;;13.93;3.78;;;21.60;99.90;;;;;;5110552;28;20035;-68
2023/07/21 07:05:41;;;;;;;5.88;3.00;;;21.60;99.90;;;;;;5110668;28;20073;-68
2023/07/21 07:08:06;;;;;;;6.68;3.05;;;21.50;86.20;;;;;;5113936;28;20023;-69
2023/07/21 07:10:38;;;;;;;8.93;3.20;;;21.70;85.80;;;;;;5113731;28;20474;-69
2023/07/21 07:13:04;;;;;;;9.02;3.38;;;21.80;84.20;;;;;;5108225;28;20032;-69
2023/07/21 07:15:30;;;;;;;4.43;2.13;;;22.00;83.50;;;;;;5114135;28;20020;-68
2023/07/21 07:17:55;;;;;;;6.35;2.72;;;22.10;81.40;;;;;;5114865;28;20421;-69
2023/07/21 07:20:21;;;;;;;6.60;2.53;;;22.20;81.50;;;;;;5113949;28;20031;-69
2023/07/21 07:22:48;;;;;;;4.30;2.50;;;22.30;81.30;;;;;;5113175;28;20055;-69
2023/07/21 07:25:13;;;;;;;6.88;2.30;;;22.40;80.70;;;;;;5112577;28;20036;-69
2023/07/21 07:27:39;;;;;;;7.05;2.03;;;22.30;79.60;;;;;;5113254;28;20847;-70
2023/07/21 07:30:06;;;;;;;4.65;1.80;;;22.20;79.50;;;;;;5106641;28;20031;-69
2023/07/21 07:32:32;;;;;;;7.32;2.08;;;22.10;80.30;;;;;;5101272;28;20051;-69
2023/07/21 07:34:58;;;;;;;2.95;1.98;;;22.20;79.60;;;;;;5113500;28;20050;-69
2023/07/21 07:37:26;;;;;;;4.38;1.80;;;22.20;79.80;;;;;;5114347;28;20015;-69
2023/07/21 07:39:51;;;;;;;4.88;2.00;;;22.30;79.30;;;;;;5107061;28;20111;-69
2023/07/21 07:42:18;;;;;;;6.03;1.83;;;22.40;79.40;;;;;;5108672;28;20106;-68
2023/07/21 07:44:43;;;;;;;2.15;1.48;;;22.40;79.80;;;;;;5112200;28;20039;-69
2023/07/21 07:47:09;;;;;;;5.85;1.60;;;22.50;79.80;;;;;;5113600;28;20081;-69
2023/07/21 07:49:35;;;;;;;8.20;1.67;;;22.70;78.70;;;;;;5105237;28;20103;-69
2023/07/21 07:52:01;;;;;;;7.40;1.83;;;22.90;78.30;;;;;;5112840;28;20019;-69
2023/07/21 07:54:26;;;;;;;4.28;1.52;;;23.10;77.60;;;;;;5099359;28;20528;-69
2023/07/21 07:56:52;;;;;;;3.13;1.63;;;23.20;76.50;;;;;;5113988;28;20574;-69
2023/07/21 07:59:18;;;;;;;6.90;1.77;;;23.40;77.00;;;;;;5111934;28;20024;-69
2023/07/21 08:01:44;;;;;;;4.30;1.60;;;23.70;77.00;;;;;;5110672;28;20368;-69
2023/07/21 08:04:09;;;;;;;3.90;1.60;;;23.90;76.10;;;;;;5112560;28;20023;-69
2023/07/21 08:06:35;;;;;;;2.88;1.40;;;24.00;75.60;;;;;;5114286;28;20132;-69
2023/07/21 08:09:00;;;;;;;6.25;2.05;;;24.00;75.40;;;;;;5112287;28;20032;-70
2023/07/21 08:11:26;;;;;;;3.35;1.52;;;23.90;75.70;;;;;;5113553;28;20100;-69
2023/07/21 08:13:51;;;;;;;3.60;2.00;;;23.90;75.10;;;;;;5113361;28;20099;-69
2023/07/21 08:16:18;;;;;;;4.65;1.85;;;23.70;75.20;;;;;;5112411;28;20023;-69
2023/07/21 08:18:44;;;;;;;4.70;1.55;;;23.50;76.10;;;;;;5112026;28;20482;-69
2023/07/21 08:21:21;;;;;;;3.97;1.70;;;23.50;76.40;;;;;;5112346;28;20015;-72
2023/07/21 08:23:49;;;;;;;3.58;1.52;;;23.40;75.40;;;;;;5117698;28;20046;-79
2023/07/21 08:26:15;;;;;;;4.68;1.77;;;23.40;76.50;;;;;;5112669;28;20027;-72
2023/07/21 08:28:40;;;;;;;3.72;1.63;;;23.40;75.80;;;;;;5113162;28;20081;-71
2023/07/21 08:31:06;;;;;;;2.28;1.30;;;23.40;76.10;;;;;;5111851;28;20364;-72
2023/07/21 08:33:31;;;;;;;5.10;1.92;;;23.40;75.60;;;;;;5113485;28;20456;-72
2023/07/21 08:35:57;;;;;;;3.08;1.40;;;23.50;76.20;;;;;;5111839;28;20057;-71
2023/07/21 08:38:23;;;;;;;2.72;1.60;;;23.60;75.50;;;;;;5112934;28;20397;-72
2023/07/21 08:40:55;;;;;;;6.28;1.60;;;23.60;76.20;;;;;;5106664;27;20019;-72
2023/07/21 08:43:21;;;;;;;5.30;1.80;;;23.60;76.20;;;;;;5118583;27;20071;-72
2023/07/21 08:45:49;;;;;;;2.47;1.63;;;23.70;75.60;;;;;;5112176;28;20078;-72
2023/07/21 08:48:17;;;;;;;1.55;1.35;;;23.70;75.60;;;;;;5102830;28;20032;-72
2023/07/21 08:50:47;;;;;;;3.30;1.83;;;23.60;74.90;;;;;;5100656;28;20024;-72
2023/07/21 08:53:13;;;;;;;;;;;23.60;75.20;;;;;;5111786;28;20023;-72
2023/07/21 08:55:39;;;;;;;3.20;1.40;;;23.60;74.80;;;;;;5112425;28;20461;-72
2023/07/21 08:58:06;;;;;;;4.50;1.80;;;23.50;75.30;;;;;;5111117;28;20229;-71
2023/07/21 09:00:31;;;;;;;2.75;1.60;;;23.50;75.20;;;;;;5112694;28;20038;-72
2023/07/21 09:03:01;;;;;;;2.60;1.50;;;23.60;75.70;;;;;;5112746;28;20444;-72
2023/07/21 09:05:27;;;;;;;2.70;1.52;;;23.60;73.70;;;;;;5112142;28;20019;-72
2023/07/21 09:07:53;;;;;;;5.28;1.80;;;23.70;74.10;;;;;;5111705;28;20027;-72
2023/07/21 09:10:33;;;;;;;6.35;1.55;;;23.90;73.40;;;;;;5110667;28;20022;-72
2023/07/21 09:13:00;;;;;;;4.28;1.40;;;24.10;72.20;;;;;;5112227;28;20371;-71
2023/07/21 09:15:26;;;;;;;5.85;2.03;;;24.10;70.00;;;;;;5112095;28;20054;-73
2023/07/21 09:17:51;;;;;;;1.95;1.35;;;24.20;70.50;;;;;;5107949;28;20445;-72
2023/07/21 09:20:20;;;;;;;3.38;1.35;;;24.20;70.10;;;;;;5106064;28;20296;-72
2023/07/21 09:22:49;;;;;;;4.55;1.30;;;24.20;70.20;;;;;;5105516;28;20102;-72
2023/07/21 09:25:22;;;;;;;2.20;1.23;;;24.20;69.70;;;;;;5112168;28;20035;-73
2023/07/21 09:27:57;;;;;;;2.10;1.58;;;24.30;70.50;;;;;;5109328;28;20394;-73
2023/07/21 09:30:23;;;;;;;1.75;1.10;;;24.40;69.80;;;;;;5111543;28;20016;-72
2023/07/21 09:32:55;;;;;;;4.72;1.33;;;24.60;68.70;;;;;;5112002;28;20031;-71
2023/07/21 09:35:21;;;;;;;1.60;1.13;;;24.80;69.30;;;;;;5110875;28;20028;-71
2023/07/21 09:37:51;;;;;;;4.55;1.50;;;24.90;68.30;;;;;;5107574;28;20102;-71
2023/07/21 09:40:17;;;;;;;2.45;1.20;;;25.00;68.00;;;;;;5100998;28;20129;-71
2023/07/21 09:42:43;;;;;;;4.85;1.42;;;25.10;67.80;;;;;;5117145;27;20051;-70
2023/07/21 09:45:09;;;;;;;7.40;1.58;;;25.40;67.70;;;;;;5111124;27;20373;-72
2023/07/21 09:47:38;;;;;;;1.27;1.20;;;25.60;68.00;;;;;;5095628;28;20039;-72
2023/07/21 09:50:03;;;;;;;2.17;1.00;;;25.70;66.80;;;;;;5106705;28;20032;-71
2023/07/21 09:52:37;;;;;;;3.10;1.23;;;26.10;93.50;;;;;;5109655;28;20037;-73
2023/07/21 09:55:11;;;;;;;10.07;1.27;;;26.10;93.80;;;;;;5110176;28;20437;-71
2023/07/21 09:57:42;;;;;;;4.88;1.50;;;26.20;93.20;;;;;;5092034;28;20034;-72
2023/07/21 10:00:14;;;;;;;1.75;1.25;;;26.20;92.40;;;;;;5094169;28;20015;-71
2023/07/21 10:02:43;;;;;;;1.48;1.38;;;25.90;92.90;;;;;;5111280;28;20198;-72
2023/07/21 10:05:10;;;;;;;4.43;1.70;;;25.80;92.50;;;;;;5109292;28;20147;-71
2023/07/21 10:07:42;;;;;;;4.32;1.70;;;25.90;91.90;;;;;;5106857;28;20030;-72
2023/07/21 10:10:09;;;;;;;6.82;1.40;;;25.70;92.10;;;;;;5108662;28;20505;-72
2023/07/21 10:12:50;;;;;;;3.67;1.80;;;25.40;92.40;;;;;;5111727;28;20047;-72
2023/07/21 10:15:30;;;;;;;3.58;1.70;;;25.30;92.20;;;;;;5109252;28;20490;-74
2023/07/21 10:18:10;;;;;;;8.43;1.50;;;25.30;92.60;;;;;;5110900;28;20030;-74
2023/07/21 10:20:42;;;;;;;2.58;1.55;;;25.30;92.00;;;;;;5117697;28;20371;-75
2023/07/21 10:23:09;;;;;;;3.33;1.73;;;25.30;92.20;;;;;;5105614;28;20338;-74
2023/07/21 10:25:59;;;;;;;4.00;1.30;;;25.40;92.20;;;;;;5097461;28;20054;-80
2023/07/21 10:28:35;;;;;;;5.88;1.30;;;25.50;92.30;;;;;;5132782;28;20026;-84
2023/07/21 10:31:23;;;;;;;1.55;1.45;;;25.70;92.30;;;;;;5109844;28;20024;-69
2023/07/21 10:34:08;;;;;;;2.33;1.58;;;25.60;92.00;;;;;;5111892;28;20401;-71
2023/07/21 10:36:52;;;;;;;3.53;1.15;;;25.50;92.40;;;;;;5109617;28;20026;-71
2023/07/21 10:39:26;;;;;;;3.03;1.58;;;25.30;92.60;;;;;;5107026;28;20068;-69
2023/07/21 10:41:54;;;;;;;6.95;1.40;;;25.10;92.70;;;;;;5127171;28;20019;-71
2023/07/21 10:44:21;;;;;;;2.30;1.50;;;25.00;94.60;;;;;;5113645;27;20035;-69
2023/07/21 10:46:51;;;;;;;4.32;1.60;;;25.20;94.70;;;;;;5085282;28;20115;-73
2023/07/21 10:49:18;;;;;;;3.85;1.45;;;25.30;94.70;;;;;;5070219;28;20314;-72
2023/07/21 10:51:49;;;;;;;1.95;1.30;;;25.60;94.40;;;;;;5071080;28;20784;-74
2023/07/21 10:54:16;;;;;;;1.65;1.20;;;25.80;93.80;;;;;;5069841;28;20029;-71
2023/07/21 10:56:47;;;;;;;4.95;1.60;;;26.20;78.40;;;;;;5070552;28;20021;-71
2023/07/21 10:59:15;;;;;;;3.60;1.65;;;25.80;75.60;;;;;;5098953;28;20019;-71
2023/07/21 11:01:44;;;;;;;3.45;1.80;;;26.80;64.90;;;;;;5093973;28;20360;-72
2023/07/21 11:04:11;;;;;;;7.03;1.70;;;27.00;64.80;;;;;;5088091;28;20141;-71
2023/07/21 11:06:40;;;;;;;2.38;1.20;;;27.30;76.10;;;;;;5083086;28;20024;-71
2023/07/21 11:09:11;;;;;;;2.33;1.70;;;27.40;65.40;;;;;;5083721;28;20027;-71
2023/07/21 11:11:47;;;;;;;2.15;1.30;;;27.20;64.70;;;;;;5089421;28;20036;-71
2023/07/21 11:14:23;;;;;;;3.50;1.63;;;26.90;64.60;;;;;;5088023;28;20035;-71
2023/07/21 11:16:57;;;;;;;2.10;1.40;;;26.80;64.90;;;;;;5112617;28;20026;-71
2023/07/21 11:19:25;;;;;;;5.35;1.70;;;26.70;64.70;;;;;;5084388;28;20086;-71
2023/07/21 11:21:51;;;;;;;1.50;1.40;;;26.60;65.00;;;;;;5090015;28;20019;-71
2023/07/21 11:24:28;;;;;;;1.85;1.38;;;26.50;64.80;;;;;;5084005;28;20638;-71
2023/07/21 11:27:02;;;;;;;7.15;2.05;;;26.50;66.00;;;;;;5093401;28;20020;-72
2023/07/21 11:29:31;;;;;;;5.88;1.63;;;26.60;65.30;;;;;;5093579;28;20472;-71
2023/07/21 11:31:57;;;;;;;6.40;1.98;;;26.70;65.20;;;;;;5094118;28;20023;-71
2023/07/21 11:34:25;;;;;;;3.17;1.50;;;26.70;65.20;;;;;;5091949;28;20140;-71
2023/07/21 11:36:58;;;;;;;2.05;1.55;;;26.80;65.30;;;;;;5088154;28;20016;-71
2023/07/21 11:39:27;;;;;;;5.15;1.77;;;26.80;66.00;;;;;;5093070;28;20024;-71
2023/07/21 11:41:57;;;;;;;4.82;1.73;;;26.90;65.50;;;;;;5094068;28;20129;-72
2023/07/21 11:44:28;;;;;;;1.83;1.42;;;26.90;65.50;;;;;;5103919;28;20048;-71
2023/07/21 11:46:55;;;;;;;4.15;1.50;;;26.80;65.70;;;;;;5114165;28;20054;-72
2023/07/21 11:49:23;;;;;;;5.82;1.52;;;26.90;65.60;;;;;;5112866;28;20583;-71
2023/07/21 11:51:53;;;;;;;3.28;1.50;;;26.80;64.80;;;;;;5113926;28;20046;-72
2023/07/21 11:54:22;;;;;;;;;;;26.60;65.40;;;;;;5102673;28;20371;-69
2023/07/21 11:56:49;;;;;;;3.63;1.27;;;26.50;66.00;;;;;;5113838;28;19904;-68
2023/07/21 11:59:15;;;;;;;3.67;1.80;;;26.40;65.40;;;;;;5112173;28;20073;-69
2023/07/21 12:01:41;;;;;;;3.83;1.92;;;26.20;65.90;;;;;;5107826;28;20024;-70
2023/07/21 12:04:08;;;;;;;5.97;1.90;;;26.10;65.70;;;;;;5112534;28;20376;-69
2023/07/21 12:06:34;;;;;;;4.15;1.70;;;26.00;67.10;;;;;;5113882;28;20023;-70
2023/07/21 12:09:00;;;;;;;5.35;1.60;;;25.80;66.20;;;;;;5103753;28;20372;-68
2023/07/21 12:11:26;;;;;;;3.42;1.75;;;25.80;66.70;;;;;;5111326;28;20039;-69
2023/07/21 12:13:52;;;;;;;1.25;1.15;;;25.60;68.30;;;;;;5111935;27;20043;-69
2023/07/21 12:16:18;;;;;;;4.90;1.48;;;25.50;74.60;;;;;;5101996;27;20047;-69
2023/07/21 12:18:43;;;;;;;2.90;1.58;;;25.30;80.30;;;;;;5111286;28;20102;-69
2023/07/21 12:21:09;;;;;;;3.70;1.50;;;25.30;82.70;;;;;;5106862;28;20020;-69
2023/07/21 12:23:35;;;;;;;4.60;1.60;;;25.20;83.30;;;;;;5111090;28;20043;-70
2023/07/21 12:26:01;;;;;;;3.25;1.52;;;25.30;84.00;;;;;;5108490;27;20027;-69
2023/07/21 12:28:27;;;;;;;3.30;1.50;;;25.20;86.70;;;;;;5109471;28;20345;-70
2023/07/21 12:30:53;;;;;;;4.22;1.90;;;;;;;;;;5111265;28;20068;-70
2023/07/21 12:33:19;;;;;;;4.13;1.85;;;;;;;;;;5112589;27;20090;-70
2023/07/21 12:35:46;;;;;;;2.97;1.90;;;;;;;;;;5101119;28;20487;-71
2023/07/21 12:38:12;;;;;;;5.20;1.50;;;;;;;;;;5108762;28;20012;-70
2023/07/21 12:40:39;;;;;;;2.22;1.50;;;;;;;;;;5110898;28;20534;-71
2023/07/21 12:43:05;;;;;;;6.00;1.67;;;;;;;;;;5111340;28;20040;-72
2023/07/21 12:45:31;;;;;;;2.15;1.80;;;;;;;;;;5104551;27;20039;-71
2023/07/21 12:47:57;;;;;;;2.65;1.58;;;;;;;;;;5111846;28;20019;-70
2023/07/21 12:50:23;;;;;;;5.97;1.92;;;;;;;;;;5109225;28;20012;-70
2023/07/21 12:52:50;;;;;;;3.53;1.63;;;;;;;;;;5111807;28;20104;-69
2023/07/21 12:55:16;;;;;;;2.65;1.98;;;;;;;;;;5110070;28;20027;-69
2023/07/21 12:57:43;;;;;;;7.35;2.03;;;;;;;;;;5116636;27;20031;-69
2023/07/21 13:00:13;;;;;;;2.65;1.52;;;;;;;;;;5110381;28;20083;-69
2023/07/21 13:02:39;;;;;;;4.05;1.77;;;;;;;;;;5111566;28;20019;-70
2023/07/21 13:05:06;;;;;;;7.82;1.92;;;;;;;;;;5108480;28;20041;-69
2023/07/21 13:07:32;;;;;;;4.68;2.20;;;;;;;;;;5110368;28;20015;-67
2023/07/21 13:09:58;;;;;;;4.63;1.98;;;;;;;;;;5098837;28;20020;-69
2023/07/21 13:12:25;;;;;;;4.95;1.50;;;;;;;;;;5110535;28;20015;-67
2023/07/21 13:14:51;;;;;;;4.60;1.90;;;;;;;;;;5093299;28;20024;-69
2023/07/21 13:17:17;;;;;;;6.95;1.80;;;;;;;;;;5104558;28;20024;-75
2023/07/21 13:19:43;;;;;;;4.78;1.77;;;;;;;;;;5110290;28;20092;-73
2023/07/21 13:22:09;;;;;;;6.57;1.80;;;;;;;;;;5111448;28;20026;-73
2023/07/21 13:24:35;;;;;;;2.22;1.67;;;;;;;;;;5110280;28;20569;-67
2023/07/21 13:27:01;;;;;;;4.18;1.50;;;;;;;;;;5111240;28;20012;-72